You are listening to:
T67 CTAF/Clearance - Fort Worth, Texas, United States

KAFW 041453Z 21008KT 10SM FEW180 OVC300 29/21 A2994 RMK AO2 SLP119 T02940206 53003

If stream doesn't start automatically press the play button
If stream stops then reload player then press play